createdAt,value
2023-04-16T00:00:42.939Z,4.46
2023-04-16T00:03:09.717Z,4.19
2023-04-16T00:05:36.544Z,4.11
2023-04-16T00:08:03.090Z,3.80
2023-04-16T00:10:29.647Z,3.42
2023-04-16T00:12:56.208Z,3.13
2023-04-16T00:15:22.830Z,3.02
2023-04-16T00:17:49.390Z,3.01
2023-04-16T00:20:16.050Z,3.02
2023-04-16T00:22:42.746Z,3.09
2023-04-16T00:25:09.377Z,3.48
2023-04-16T00:27:36.133Z,3.47
2023-04-16T00:30:03.645Z,3.87
2023-04-16T00:32:30.490Z,3.74
2023-04-16T00:34:57.081Z,3.81
2023-04-16T00:37:23.628Z,3.35
2023-04-16T00:39:50.538Z,3.27
2023-04-16T00:42:17.198Z,3.38
2023-04-16T00:44:43.779Z,3.06
2023-04-16T00:47:10.357Z,3.11
2023-04-16T00:49:36.993Z,3.11
2023-04-16T00:52:03.799Z,3.33
2023-04-16T00:54:31.952Z,3.50
2023-04-16T00:56:59.608Z,3.49
2023-04-16T00:59:27.076Z,3.51
2023-04-16T01:01:53.848Z,3.75
2023-04-16T01:04:21.109Z,4.00
2023-04-16T01:06:47.767Z,3.96
2023-04-16T01:09:14.352Z,4.17
2023-04-16T01:11:41.008Z,4.26
2023-04-16T01:14:07.594Z,4.59
2023-04-16T01:16:34.198Z,5.10
2023-04-16T01:19:00.883Z,5.02
2023-04-16T01:21:27.492Z,5.04
2023-04-16T01:23:54.004Z,4.78
2023-04-16T01:26:20.516Z,5.13
2023-04-16T01:28:47.028Z,5.27
2023-04-16T01:31:13.704Z,4.85
2023-04-16T01:33:40.315Z,5.80
2023-04-16T01:36:07.175Z,5.60
2023-04-16T01:38:33.704Z,5.47
2023-04-16T01:41:00.244Z,5.42
2023-04-16T01:43:26.839Z,5.41
2023-04-16T01:46:10.391Z,5.67
2023-04-16T01:48:36.922Z,5.36
2023-04-16T01:51:04.899Z,5.56
2023-04-16T01:53:31.438Z,5.85
2023-04-16T01:55:57.979Z,6.01
2023-04-16T01:58:24.544Z,6.01
2023-04-16T02:00:51.176Z,6.22
2023-04-16T02:03:18.596Z,6.51
2023-04-16T02:05:45.305Z,6.62
2023-04-16T02:08:11.804Z,7.27
2023-04-16T02:10:38.338Z,7.42
2023-04-16T02:13:04.991Z,7.84
2023-04-16T02:15:31.618Z,8.07
2023-04-16T02:17:58.167Z,8.19
2023-04-16T02:20:24.781Z,7.97
2023-04-16T02:22:51.303Z,8.24
2023-04-16T02:25:17.920Z,8.29
2023-04-16T02:27:44.486Z,8.56
2023-04-16T02:30:11.501Z,8.52
2023-04-16T02:32:38.121Z,8.61
2023-04-16T02:35:05.018Z,8.79
2023-04-16T02:37:31.639Z,9.03
2023-04-16T02:39:58.165Z,8.83
2023-04-16T02:42:24.770Z,9.26
2023-04-16T02:44:51.335Z,9.28
2023-04-16T02:47:17.952Z,9.22
2023-04-16T02:49:44.493Z,9.49
2023-04-16T02:52:11.048Z,9.35
2023-04-16T02:54:37.636Z,9.65
2023-04-16T02:57:04.282Z,10.21
2023-04-16T02:59:30.864Z,10.14
2023-04-16T03:01:57.548Z,9.92
2023-04-16T03:04:24.352Z,9.83
2023-04-16T03:06:51.265Z,9.48
2023-04-16T03:09:17.805Z,10.09
2023-04-16T03:11:44.376Z,9.90
2023-04-16T03:14:10.920Z,10.54
2023-04-16T03:16:37.492Z,10.79
2023-04-16T03:19:04.085Z,11.09
2023-04-16T03:21:31.185Z,11.56
2023-04-16T03:23:57.747Z,11.76
2023-04-16T03:26:24.336Z,12.05
2023-04-16T03:28:50.903Z,12.13
2023-04-16T03:31:17.602Z,11.64
2023-04-16T03:33:44.197Z,11.65
2023-04-16T03:36:10.820Z,11.77
2023-04-16T03:38:37.393Z,10.99
2023-04-16T03:41:03.905Z,10.83
2023-04-16T03:43:30.616Z,10.37
2023-04-16T03:45:57.235Z,10.43
2023-04-16T03:48:23.770Z,10.30
2023-04-16T03:50:50.416Z,10.51
2023-04-16T03:53:17.054Z,10.15
2023-04-16T03:55:43.623Z,10.33
2023-04-16T03:58:10.226Z,10.31
2023-04-16T04:00:36.883Z,10.46
2023-04-16T04:03:03.584Z,10.53
2023-04-16T04:05:30.310Z,10.73
2023-04-16T04:07:56.937Z,11.18
2023-04-16T04:10:23.506Z,11.51
2023-04-16T04:12:50.157Z,11.15
2023-04-16T04:15:16.739Z,11.86
2023-04-16T04:17:43.526Z,11.66
2023-04-16T04:20:10.770Z,11.84
2023-04-16T04:22:37.353Z,12.17
2023-04-16T04:25:04.012Z,11.66
2023-04-16T04:27:30.569Z,11.73
2023-04-16T04:29:57.821Z,11.73
2023-04-16T04:32:24.366Z,12.24
2023-04-16T04:34:51.071Z,11.92
2023-04-16T04:37:17.651Z,11.22
2023-04-16T04:39:44.207Z,11.61
2023-04-16T04:42:11.009Z,11.58
2023-04-16T04:44:37.577Z,11.52
2023-04-16T04:47:04.139Z,11.11
2023-04-16T04:49:31.191Z,11.22
2023-04-16T04:51:57.699Z,11.20
2023-04-16T04:54:24.264Z,11.36
2023-04-16T04:56:52.476Z,11.21
2023-04-16T04:59:22.991Z,11.22
2023-04-16T05:01:50.415Z,11.16
2023-04-16T05:04:17.607Z,11.12
2023-04-16T05:06:44.557Z,11.62
2023-04-16T05:09:14.001Z,11.51
2023-04-16T05:11:41.976Z,11.45
2023-04-16T05:14:09.151Z,11.60
2023-04-16T05:16:37.206Z,11.78
2023-04-16T05:19:04.053Z,12.07
2023-04-16T05:21:30.864Z,11.63
2023-04-16T05:23:58.367Z,11.92
2023-04-16T05:26:24.956Z,12.16
2023-04-16T05:28:51.501Z,11.62
2023-04-16T05:31:18.040Z,12.10
2023-04-16T05:33:44.597Z,12.52
2023-04-16T05:36:11.105Z,12.25
2023-04-16T05:38:37.737Z,12.04
2023-04-16T05:41:04.321Z,12.51
2023-04-16T05:43:31.172Z,12.44
2023-04-16T05:45:57.773Z,12.12
2023-04-16T05:48:24.467Z,12.55
2023-04-16T05:50:51.081Z,12.62
2023-04-16T05:53:18.958Z,12.91
2023-04-16T05:55:46.678Z,12.33
2023-04-16T05:58:13.194Z,12.11
2023-04-16T06:00:40.438Z,12.02
2023-04-16T06:03:07.245Z,12.53
2023-04-16T06:05:33.959Z,12.12
2023-04-16T06:08:00.666Z,11.85
2023-04-16T06:10:27.249Z,11.69
2023-04-16T06:12:53.802Z,11.94
2023-04-16T06:15:20.370Z,12.03
2023-04-16T06:17:46.966Z,12.29
2023-04-16T06:20:14.225Z,11.97
2023-04-16T06:22:40.739Z,12.76
2023-04-16T06:25:07.735Z,12.68
2023-04-16T06:27:34.267Z,13.33
2023-04-16T06:30:00.878Z,13.28
2023-04-16T06:32:27.556Z,13.56
2023-04-16T06:34:54.266Z,13.79
2023-04-16T06:37:20.881Z,14.12
2023-04-16T06:39:47.438Z,13.83
2023-04-16T06:42:13.991Z,14.35
2023-04-16T06:44:40.564Z,14.28
2023-04-16T06:47:07.278Z,14.57
2023-04-16T06:49:33.901Z,14.68
2023-04-16T06:52:00.699Z,14.52
2023-04-16T06:54:27.212Z,14.45
2023-04-16T06:56:53.723Z,14.93
2023-04-16T06:59:20.352Z,14.90
2023-04-16T07:01:47.163Z,14.55
2023-04-16T07:04:13.842Z,15.05
2023-04-16T07:06:40.599Z,14.97
2023-04-16T07:09:07.272Z,15.08
2023-04-16T07:11:34.108Z,14.82
2023-04-16T07:14:00.682Z,15.85
2023-04-16T07:16:27.358Z,15.34
2023-04-16T07:18:53.885Z,15.60
2023-04-16T07:21:20.939Z,16.61
2023-04-16T07:23:47.466Z,16.74
2023-04-16T07:26:14.046Z,16.99
2023-04-16T07:28:40.625Z,17.13
2023-04-16T07:31:07.486Z,17.45
2023-04-16T07:33:34.031Z,16.73
2023-04-16T07:36:00.604Z,15.60
2023-04-16T07:38:27.122Z,15.61
2023-04-16T07:40:53.772Z,15.10
2023-04-16T07:43:20.430Z,14.89
2023-04-16T07:45:46.999Z,15.06
2023-04-16T07:48:13.670Z,14.30
2023-04-16T07:50:41.809Z,14.03
2023-04-16T07:53:08.435Z,14.12
2023-04-16T07:55:35.306Z,14.24
2023-04-16T07:58:02.803Z,13.99
2023-04-16T08:00:30.183Z,14.39
2023-04-16T08:02:56.994Z,14.14
2023-04-16T08:05:23.811Z,13.56
2023-04-16T08:07:50.565Z,13.48
2023-04-16T08:10:17.088Z,13.05
2023-04-16T08:12:43.617Z,12.75
2023-04-16T08:15:10.372Z,12.63
2023-04-16T08:17:37.709Z,11.95
2023-04-16T08:20:05.076Z,11.77
2023-04-16T08:22:32.832Z,12.00
2023-04-16T08:24:59.355Z,11.67
2023-04-16T08:27:25.941Z,11.29
2023-04-16T08:29:52.488Z,10.67
2023-04-16T08:32:19.148Z,10.55
2023-04-16T08:34:45.849Z,11.09
2023-04-16T08:37:12.403Z,10.67
2023-04-16T08:39:39.002Z,10.27
2023-04-16T08:42:06.384Z,10.15
2023-04-16T08:44:37.542Z,9.93
2023-04-16T08:47:08.613Z,9.52
2023-04-16T08:49:38.462Z,9.48
2023-04-16T08:52:06.751Z,9.41
2023-04-16T08:54:56.536Z,9.22
2023-04-16T08:57:29.623Z,8.60
2023-04-16T08:59:57.859Z,8.51
2023-04-16T09:02:26.399Z,8.86
2023-04-16T09:04:53.830Z,8.83
2023-04-16T09:07:21.992Z,8.86
2023-04-16T09:09:50.314Z,8.72
2023-04-16T09:12:17.541Z,8.86
2023-04-16T09:14:48.692Z,9.05
2023-04-16T09:17:16.771Z,9.01
2023-04-16T09:19:43.415Z,9.11
2023-04-16T09:22:10.038Z,9.21
2023-04-16T09:24:38.409Z,9.86
2023-04-16T09:27:05.860Z,9.55
2023-04-16T09:29:37.671Z,9.10
2023-04-16T09:32:07.013Z,9.06
2023-04-16T09:34:35.670Z,8.88
2023-04-16T09:37:16.739Z,8.82
2023-04-16T09:39:44.166Z,9.17
2023-04-16T09:42:11.584Z,8.61
2023-04-16T09:44:38.871Z,9.21
2023-04-16T09:47:07.777Z,9.15
2023-04-16T09:49:43.603Z,9.20
2023-04-16T09:52:15.384Z,9.09
2023-04-16T09:54:52.327Z,8.89
2023-04-16T09:57:23.811Z,9.38
2023-04-16T10:00:03.410Z,9.67
2023-04-16T10:02:30.968Z,10.56
2023-04-16T10:04:57.957Z,11.20
2023-04-16T10:07:29.411Z,11.20
2023-04-16T10:09:56.044Z,11.13
2023-04-16T10:12:22.558Z,10.59
2023-04-16T10:14:50.382Z,10.32
2023-04-16T10:17:17.880Z,10.38
2023-04-16T10:19:46.554Z,10.85
2023-04-16T10:22:13.741Z,11.28
2023-04-16T10:24:41.201Z,11.68
2023-04-16T10:27:07.697Z,12.42
2023-04-16T10:29:36.316Z,13.82
2023-04-16T10:32:03.803Z,14.20
2023-04-16T10:34:31.615Z,14.12
2023-04-16T10:36:58.221Z,14.27
2023-04-16T10:39:28.284Z,14.44
2023-04-16T10:42:09.750Z,14.04
2023-04-16T10:44:36.561Z,13.87
2023-04-16T10:47:03.558Z,14.10
2023-04-16T10:49:30.140Z,14.40
2023-04-16T10:51:58.596Z,14.18
2023-04-16T10:54:29.942Z,13.63
2023-04-16T10:56:58.521Z,13.72
2023-04-16T10:59:29.207Z,12.58
2023-04-16T11:01:59.519Z,10.54
2023-04-16T11:04:28.875Z,12.92
2023-04-16T11:07:06.211Z,12.00
2023-04-16T11:09:51.226Z,11.80
2023-04-16T11:12:23.757Z,11.68
2023-04-16T11:14:53.024Z,11.98
2023-04-16T11:17:20.980Z,12.37
2023-04-16T11:19:47.552Z,12.28
2023-04-16T11:22:17.147Z,12.68
2023-04-16T11:24:47.438Z,12.92
2023-04-16T11:27:15.107Z,13.17
2023-04-16T11:29:41.734Z,13.35
2023-04-16T11:32:08.499Z,13.44
2023-04-16T11:34:35.197Z,13.48
2023-04-16T11:37:01.904Z,14.01
2023-04-16T11:39:28.487Z,14.75
2023-04-16T11:41:55.868Z,14.90
2023-04-16T11:44:24.760Z,15.13
2023-04-16T11:46:52.422Z,14.52
2023-04-16T11:49:30.361Z,15.22
2023-04-16T11:51:57.032Z,15.32
2023-04-16T11:54:24.602Z,15.28
2023-04-16T11:56:53.134Z,15.10
2023-04-16T11:59:23.136Z,14.89
2023-04-16T12:01:51.724Z,14.57
2023-04-16T12:04:29.178Z,14.21
2023-04-16T12:07:14.506Z,14.70
2023-04-16T12:09:42.764Z,14.85
2023-04-16T12:12:30.564Z,15.75
2023-04-16T12:14:59.504Z,15.97
2023-04-16T12:17:26.140Z,15.19
2023-04-16T12:19:56.597Z,14.25
2023-04-16T12:22:31.071Z,14.19
2023-04-16T12:25:17.367Z,13.72
2023-04-16T12:27:46.988Z,14.14
2023-04-16T12:30:15.463Z,13.93
2023-04-16T12:32:43.684Z,14.58
2023-04-16T12:35:11.582Z,13.84
2023-04-16T12:37:39.338Z,13.53
2023-04-16T12:40:07.049Z,12.62
2023-04-16T12:42:37.137Z,12.18
2023-04-16T12:45:05.055Z,12.77
2023-04-16T12:47:32.364Z,12.32
2023-04-16T12:49:59.153Z,12.49
2023-04-16T12:52:25.973Z,12.58
2023-04-16T12:54:53.052Z,12.35
2023-04-16T12:57:19.719Z,12.62
2023-04-16T12:59:47.082Z,13.62
2023-04-16T13:02:13.844Z,13.29
2023-04-16T13:04:40.841Z,13.13
2023-04-16T13:07:07.914Z,13.03
2023-04-16T13:09:34.471Z,13.78
2023-04-16T13:12:01.522Z,14.43
2023-04-16T13:14:28.032Z,14.28
2023-04-16T13:16:54.619Z,14.57
2023-04-16T13:19:21.229Z,14.15
2023-04-16T13:21:47.858Z,14.94
2023-04-16T13:24:14.467Z,15.41
2023-04-16T13:26:41.030Z,16.03
2023-04-16T13:29:07.802Z,15.66
2023-04-16T13:31:34.685Z,16.07
2023-04-16T13:34:01.370Z,16.01
2023-04-16T13:36:28.691Z,16.25
2023-04-16T13:38:55.247Z,15.79
2023-04-16T13:41:21.815Z,16.08
2023-04-16T13:43:48.410Z,15.75
2023-04-16T13:46:14.943Z,15.66
2023-04-16T13:48:41.690Z,15.66
2023-04-16T13:51:08.389Z,16.14
2023-04-16T13:53:34.955Z,15.12
2023-04-16T13:56:03.600Z,14.78
2023-04-16T13:58:30.358Z,14.46
2023-04-16T14:00:56.991Z,14.02
2023-04-16T14:03:25.710Z,14.47
2023-04-16T14:05:52.836Z,13.75
2023-04-16T14:08:21.241Z,13.75
2023-04-16T14:10:48.302Z,13.43
2023-04-16T14:13:15.378Z,12.95
2023-04-16T14:15:42.052Z,12.78
2023-04-16T14:18:08.598Z,13.10
2023-04-16T14:20:35.195Z,13.25
2023-04-16T14:23:01.896Z,13.19
2023-04-16T14:25:28.478Z,13.06
2023-04-16T14:27:55.044Z,14.62
2023-04-16T14:30:21.616Z,11.86
2023-04-16T14:32:48.220Z,11.87
2023-04-16T14:35:14.858Z,12.46
2023-04-16T14:37:41.594Z,12.24
2023-04-16T14:40:08.978Z,11.89
2023-04-16T14:42:36.908Z,12.10
2023-04-16T14:45:06.477Z,12.66
2023-04-16T14:47:34.388Z,13.21
2023-04-16T14:50:02.197Z,13.02
2023-04-16T14:52:30.335Z,13.04
2023-04-16T14:54:57.077Z,12.90
2023-04-16T14:57:23.798Z,13.64
2023-04-16T14:59:50.499Z,14.21
2023-04-16T15:02:17.651Z,13.71
2023-04-16T15:04:45.287Z,13.96
2023-04-16T15:07:11.870Z,13.35
2023-04-16T15:09:38.505Z,13.61
2023-04-16T15:12:05.261Z,13.62
2023-04-16T15:14:31.839Z,14.06
2023-04-16T15:16:58.473Z,14.09
2023-04-16T15:19:25.705Z,13.52
2023-04-16T15:21:52.407Z,14.18
2023-04-16T15:24:18.984Z,14.15
2023-04-16T15:26:45.575Z,14.01
2023-04-16T15:29:12.097Z,14.76
2023-04-16T15:31:38.671Z,14.54
2023-04-16T15:34:05.493Z,14.77
2023-04-16T15:36:32.528Z,15.57
2023-04-16T15:38:59.107Z,15.37
2023-04-16T15:41:25.695Z,15.13
2023-04-16T15:43:52.252Z,15.53
2023-04-16T15:46:18.905Z,16.00
2023-04-16T15:48:45.675Z,16.46
2023-04-16T15:51:12.359Z,16.18
2023-04-16T15:53:39.065Z,16.36
2023-04-16T15:56:05.862Z,16.11
2023-04-16T15:58:32.483Z,16.59
2023-04-16T16:00:59.229Z,15.77
2023-04-16T16:03:26.253Z,16.06
2023-04-16T16:05:53.042Z,16.14
2023-04-16T16:08:19.753Z,16.28
2023-04-16T16:10:46.740Z,16.62
2023-04-16T16:13:15.918Z,16.37
2023-04-16T16:15:42.598Z,15.73
2023-04-16T16:18:09.197Z,16.13
2023-04-16T16:20:36.601Z,16.90
2023-04-16T16:23:03.699Z,16.67
2023-04-16T16:25:30.343Z,16.31
2023-04-16T16:27:57.004Z,16.48
2023-04-16T16:30:23.557Z,17.38
2023-04-16T16:32:50.751Z,17.89
2023-04-16T16:35:17.399Z,17.83
2023-04-16T16:37:43.976Z,18.76
2023-04-16T16:40:11.180Z,17.83
2023-04-16T16:42:37.812Z,17.16
2023-04-16T16:45:06.003Z,17.13
2023-04-16T16:47:33.374Z,17.51
2023-04-16T16:50:02.608Z,17.47
2023-04-16T16:52:29.605Z,18.21
2023-04-16T16:54:58.932Z,17.71
2023-04-16T16:57:25.727Z,18.02
2023-04-16T16:59:52.265Z,17.44
2023-04-16T17:02:18.913Z,17.12
2023-04-16T17:04:45.560Z,17.31
2023-04-16T17:07:12.209Z,17.93
2023-04-16T17:09:39.091Z,17.45
2023-04-16T17:12:06.268Z,17.28
2023-04-16T17:14:33.268Z,17.44
2023-04-16T17:16:59.940Z,17.83
2023-04-16T17:19:27.474Z,17.75
2023-04-16T17:21:54.257Z,17.24
2023-04-16T17:24:21.009Z,17.19
2023-04-16T17:26:47.570Z,17.56
2023-04-16T17:29:14.139Z,17.12
2023-04-16T17:31:40.770Z,17.38
2023-04-16T17:34:07.461Z,17.60
2023-04-16T17:36:33.987Z,17.00
2023-04-16T17:39:00.496Z,17.39
2023-04-16T17:41:27.118Z,17.34
2023-04-16T17:43:53.689Z,16.80
2023-04-16T17:46:20.417Z,17.35
2023-04-16T17:48:48.792Z,17.84
2023-04-16T17:51:18.171Z,17.53
2023-04-16T17:53:44.967Z,17.46
2023-04-16T17:56:12.424Z,17.48
2023-04-16T17:58:38.994Z,17.15
2023-04-16T18:01:06.091Z,18.01
2023-04-16T18:03:33.083Z,17.75
2023-04-16T18:06:00.199Z,18.32
2023-04-16T18:08:28.260Z,18.64
2023-04-16T18:10:57.416Z,19.08
2023-04-16T18:13:24.420Z,20.02
2023-04-16T18:15:51.477Z,19.01
2023-04-16T18:18:18.568Z,18.90
2023-04-16T18:20:45.313Z,19.71
2023-04-16T18:23:11.903Z,19.72
2023-04-16T18:28:06.284Z,20.22
2023-04-16T18:30:32.944Z,21.10
2023-04-16T18:33:30.688Z,20.43
2023-04-16T18:35:46.236Z,21.21
2023-04-16T18:38:13.577Z,21.17
2023-04-16T18:40:41.514Z,21.11
2023-04-16T18:43:08.050Z,21.34
2023-04-16T18:45:34.729Z,22.21
2023-04-16T18:48:03.461Z,23.14
2023-04-16T18:50:30.053Z,23.25
2023-04-16T18:52:56.567Z,23.11
2023-04-16T18:55:23.108Z,22.73
2023-04-16T18:57:49.994Z,22.81
2023-04-16T19:00:16.830Z,23.30
2023-04-16T19:02:43.549Z,22.95
2023-04-16T19:05:10.321Z,22.86
2023-04-16T19:07:37.578Z,23.29
2023-04-16T19:10:05.232Z,22.88
2023-04-16T19:12:32.370Z,22.95
2023-04-16T19:14:59.316Z,22.84
2023-04-16T19:17:26.538Z,23.43
2023-04-16T19:19:53.412Z,22.75
2023-04-16T19:22:19.975Z,22.84
2023-04-16T19:24:46.862Z,23.27
2023-04-16T19:27:13.557Z,23.58
2023-04-16T19:29:42.671Z,24.75
2023-04-16T19:32:09.220Z,23.80
2023-04-16T19:34:35.925Z,22.82
2023-04-16T19:37:02.647Z,22.91
2023-04-16T19:39:29.252Z,23.29
2023-04-16T19:41:56.241Z,23.11
2023-04-16T19:44:23.224Z,23.09
2023-04-16T19:46:49.768Z,23.48
2023-04-16T19:49:16.351Z,23.39
2023-04-16T19:51:42.939Z,22.72
2023-04-16T19:54:09.550Z,23.46
2023-04-16T19:56:36.532Z,23.73
2023-04-16T19:59:03.201Z,24.30
2023-04-16T20:01:31.210Z,24.42
2023-04-16T20:03:58.056Z,23.41
2023-04-16T20:06:26.209Z,23.50
2023-04-16T20:08:52.993Z,23.76
2023-04-16T20:11:19.611Z,25.08
2023-04-16T20:13:47.424Z,25.04
2023-04-16T20:16:14.117Z,24.67
2023-04-16T20:18:41.465Z,24.07
2023-04-16T20:21:09.058Z,23.85
2023-04-16T20:23:35.662Z,24.30
2023-04-16T20:26:02.319Z,23.65
2023-04-16T20:28:28.837Z,24.21
2023-04-16T20:30:55.433Z,23.57
2023-04-16T20:33:22.050Z,24.13
2023-04-16T20:35:50.866Z,24.72
2023-04-16T20:38:23.520Z,24.44
2023-04-16T20:40:58.116Z,24.64
2023-04-16T20:43:26.041Z,25.39
2023-04-16T20:45:52.661Z,25.55
2023-04-16T20:48:19.342Z,25.35
2023-04-16T20:50:45.947Z,25.64
2023-04-16T20:53:12.939Z,25.56
2023-04-16T20:55:39.503Z,25.45
2023-04-16T20:58:06.372Z,25.42
2023-04-16T21:00:32.970Z,26.11
2023-04-16T21:02:59.743Z,26.50
2023-04-16T21:05:26.466Z,26.15
2023-04-16T21:07:55.413Z,26.72
2023-04-16T21:10:22.407Z,26.19
2023-04-16T21:12:48.998Z,26.43
2023-04-16T21:15:15.744Z,25.39
2023-04-16T21:17:42.349Z,25.82
2023-04-16T21:20:13.558Z,26.99
2023-04-16T21:22:42.122Z,26.93
2023-04-16T21:25:09.218Z,26.91
2023-04-16T21:27:35.797Z,26.07
2023-04-16T21:30:02.372Z,25.21
2023-04-16T21:32:28.934Z,24.15
2023-04-16T21:34:55.785Z,23.59
2023-04-16T21:37:22.381Z,23.13
2023-04-16T21:39:48.916Z,23.94
2023-04-16T21:42:15.469Z,23.80
2023-04-16T21:44:42.059Z,23.61
2023-04-16T21:47:08.624Z,24.46
2023-04-16T21:49:35.193Z,24.21
2023-04-16T21:52:02.524Z,24.50
2023-04-16T21:54:29.220Z,24.83
2023-04-16T21:56:56.964Z,24.09
2023-04-16T21:59:23.505Z,23.63
2023-04-16T22:01:50.350Z,23.55
2023-04-16T22:04:17.762Z,23.56
2023-04-16T22:06:46.194Z,24.13
2023-04-16T22:09:12.919Z,24.35
2023-04-16T22:11:40.704Z,25.40
2023-04-16T22:14:08.101Z,25.85
2023-04-16T22:16:35.757Z,25.07
2023-04-16T22:19:02.328Z,25.15
2023-04-16T22:21:28.939Z,25.43
2023-04-16T22:23:55.551Z,26.88
2023-04-16T22:26:22.085Z,25.75
2023-04-16T22:28:48.663Z,27.01
2023-04-16T22:31:15.220Z,26.55
2023-04-16T22:33:41.786Z,25.73
2023-04-16T22:36:08.634Z,25.72
2023-04-16T22:38:35.351Z,25.01
2023-04-16T22:41:01.906Z,25.35
2023-04-16T22:43:28.470Z,26.19
2023-04-16T22:46:06.275Z,26.04
2023-04-16T22:48:36.066Z,26.12
2023-04-16T22:51:02.891Z,26.75
2023-04-16T22:53:29.455Z,26.37
2023-04-16T22:55:55.968Z,27.13
2023-04-16T22:58:22.520Z,27.53
2023-04-16T23:00:51.666Z,27.74
2023-04-16T23:03:18.781Z,28.33
2023-04-16T23:05:45.371Z,27.65
2023-04-16T23:08:11.913Z,28.06
2023-04-16T23:10:38.454Z,27.72
2023-04-16T23:13:05.055Z,27.97
2023-04-16T23:15:31.676Z,27.69
2023-04-16T23:17:58.379Z,28.11
2023-04-16T23:20:25.073Z,27.63
2023-04-16T23:22:52.717Z,27.44
2023-04-16T23:25:19.482Z,28.04
2023-04-16T23:27:46.047Z,28.31
2023-04-16T23:30:12.889Z,28.22
2023-04-16T23:32:39.492Z,28.16
2023-04-16T23:35:06.520Z,28.39
2023-04-16T23:37:33.099Z,29.62
2023-04-16T23:39:59.657Z,30.19
2023-04-16T23:42:26.208Z,29.68
2023-04-16T23:44:52.769Z,29.35
2023-04-16T23:47:19.469Z,28.93
2023-04-16T23:49:46.042Z,28.76
2023-04-16T23:52:12.600Z,29.08
2023-04-16T23:54:39.156Z,30.08
2023-04-16T23:57:05.699Z,29.02
2023-04-16T23:59:32.296Z,29.86
